createdAt,value
2022-12-15T00:01:50.412Z,2.20
2022-12-15T00:04:36.291Z,2.20
2022-12-15T00:07:23.510Z,2.20
2022-12-15T00:10:10.506Z,2.20
2022-12-15T00:12:56.279Z,2.20
2022-12-15T00:15:42.056Z,2.20
2022-12-15T00:18:27.738Z,2.20
2022-12-15T00:21:16.343Z,2.20
2022-12-15T00:24:02.553Z,2.20
2022-12-15T00:26:49.878Z,2.20
2022-12-15T00:29:35.625Z,2.20
2022-12-15T00:32:21.356Z,2.20
2022-12-15T00:35:06.917Z,2.20
2022-12-15T00:37:52.815Z,2.20
2022-12-15T00:40:21.196Z,2.20
2022-12-15T00:42:50.856Z,2.20
2022-12-15T00:45:19.119Z,2.20
2022-12-15T00:47:46.405Z,2.20
2022-12-15T00:50:31.189Z,2.20
2022-12-15T00:53:17.025Z,2.20
2022-12-15T00:56:02.719Z,2.20
2022-12-15T00:58:49.858Z,2.10
2022-12-15T01:01:35.738Z,2.10
2022-12-15T01:04:21.766Z,2.10
2022-12-15T01:07:07.466Z,2.10
2022-12-15T01:09:53.096Z,2.10
2022-12-15T01:12:38.752Z,2.10
2022-12-15T01:15:26.866Z,2.10
2022-12-15T01:18:12.884Z,2.10
2022-12-15T01:20:41.215Z,2.10
2022-12-15T01:23:09.675Z,2.10
2022-12-15T01:25:40.245Z,2.10
2022-12-15T01:28:08.566Z,2.10
2022-12-15T01:30:38.221Z,2.10
2022-12-15T01:33:06.566Z,2.10
2022-12-15T01:35:34.930Z,2.10
2022-12-15T01:38:03.230Z,2.00
2022-12-15T01:40:45.638Z,2.10
2022-12-15T01:43:16.241Z,2.00
2022-12-15T01:45:53.306Z,2.00
2022-12-15T01:48:27.678Z,2.00
2022-12-15T01:51:05.059Z,2.00
2022-12-15T01:53:37.724Z,2.00
2022-12-15T01:56:09.220Z,2.00
2022-12-15T01:58:38.817Z,2.00
2022-12-15T02:01:09.658Z,2.00
2022-12-15T02:03:39.674Z,2.00
2022-12-15T02:06:09.252Z,2.00
2022-12-15T02:08:38.577Z,2.00
2022-12-15T02:11:23.472Z,2.00
2022-12-15T02:14:00.667Z,2.00
2022-12-15T02:16:40.997Z,2.10
2022-12-15T02:19:27.107Z,2.00
2022-12-15T02:22:06.826Z,2.10
2022-12-15T02:24:53.790Z,2.10
2022-12-15T02:27:57.498Z,2.10
2022-12-15T02:30:46.051Z,2.10
2022-12-15T02:33:21.739Z,2.10
2022-12-15T02:35:58.867Z,2.10
2022-12-15T02:38:32.309Z,2.10
2022-12-15T02:41:02.108Z,2.10
2022-12-15T02:43:33.720Z,2.10
2022-12-15T02:46:18.060Z,2.10
2022-12-15T02:48:57.795Z,2.10
2022-12-15T02:51:39.180Z,2.10
2022-12-15T02:54:24.238Z,2.10
2022-12-15T02:57:03.969Z,2.10
2022-12-15T02:59:40.120Z,2.10
2022-12-15T03:02:11.564Z,2.10
2022-12-15T03:04:40.610Z,2.10
2022-12-15T03:07:10.985Z,2.10
2022-12-15T03:09:39.396Z,2.10
2022-12-15T03:12:08.342Z,2.10
2022-12-15T03:14:36.622Z,2.10
2022-12-15T03:17:07.179Z,2.10
2022-12-15T03:19:36.845Z,2.10
2022-12-15T03:22:05.378Z,2.10
2022-12-15T03:24:33.829Z,2.10
2022-12-15T03:27:02.160Z,2.00
2022-12-15T03:29:30.442Z,2.00
2022-12-15T03:31:58.759Z,2.00
2022-12-15T03:34:27.069Z,2.00
2022-12-15T03:36:56.722Z,2.00
2022-12-15T03:39:24.990Z,2.00
2022-12-15T03:41:53.257Z,2.00
2022-12-15T03:44:21.581Z,1.90
2022-12-15T03:46:49.949Z,1.90
2022-12-15T03:49:18.302Z,1.90
2022-12-15T03:51:46.612Z,1.90
2022-12-15T03:54:16.457Z,1.90
2022-12-15T03:56:44.716Z,1.90
2022-12-15T03:59:12.941Z,1.80
2022-12-15T04:01:47.756Z,1.80
2022-12-15T04:04:16.457Z,1.80
2022-12-15T04:06:44.741Z,1.80
2022-12-15T04:09:13.080Z,1.80
2022-12-15T04:11:42.818Z,1.80
2022-12-15T04:14:11.379Z,1.80
2022-12-15T04:16:39.720Z,1.80
2022-12-15T04:19:27.687Z,1.80
2022-12-15T04:21:56.130Z,1.80
2022-12-15T04:24:41.822Z,1.80
2022-12-15T04:27:28.983Z,1.80
2022-12-15T04:30:14.981Z,1.70
2022-12-15T04:33:01.010Z,1.70
2022-12-15T04:35:49.931Z,1.80
2022-12-15T04:38:36.346Z,1.80
2022-12-15T04:41:22.145Z,1.80
2022-12-15T04:44:09.555Z,1.80
2022-12-15T04:46:55.055Z,1.80
2022-12-15T04:49:40.754Z,1.80
2022-12-15T04:52:26.465Z,1.80
2022-12-15T04:55:11.869Z,1.80
2022-12-15T04:57:58.194Z,1.80
2022-12-15T05:00:45.424Z,1.90
2022-12-15T05:03:31.298Z,1.80
2022-12-15T05:06:17.359Z,1.80
2022-12-15T05:09:03.212Z,1.80
2022-12-15T05:11:48.862Z,1.80
2022-12-15T05:14:34.815Z,1.80
2022-12-15T05:17:21.980Z,1.80
2022-12-15T05:20:07.697Z,1.80
2022-12-15T05:22:53.535Z,1.80
2022-12-15T05:25:40.129Z,1.80
2022-12-15T05:28:26.038Z,1.80
2022-12-15T05:31:11.647Z,1.80
2022-12-15T05:33:41.351Z,1.90
2022-12-15T05:36:10.233Z,1.90
2022-12-15T05:38:38.520Z,1.90
2022-12-15T05:41:07.434Z,1.90
2022-12-15T05:43:35.879Z,1.90
2022-12-15T05:46:05.083Z,1.90
2022-12-15T05:48:33.443Z,1.90
2022-12-15T05:51:06.130Z,1.90
2022-12-15T05:53:34.951Z,1.90
2022-12-15T05:56:04.523Z,1.90
2022-12-15T05:58:33.084Z,1.90
2022-12-15T06:01:06.277Z,1.90
2022-12-15T06:03:35.002Z,1.90
2022-12-15T06:06:05.663Z,1.90
2022-12-15T06:08:36.273Z,1.90
2022-12-15T06:11:04.957Z,1.90
2022-12-15T06:16:15.841Z,1.90
2022-12-15T06:18:49.908Z,2.00
2022-12-15T06:21:20.526Z,2.00
2022-12-15T06:23:49.034Z,2.00
2022-12-15T06:26:21.584Z,2.00
2022-12-15T06:28:50.954Z,2.00
2022-12-15T06:31:22.858Z,2.00
2022-12-15T06:33:55.969Z,2.00
2022-12-15T06:36:28.699Z,2.00
2022-12-15T06:39:00.441Z,2.00
2022-12-15T06:41:30.436Z,2.10
2022-12-15T06:43:59.694Z,2.10
2022-12-15T06:46:30.872Z,2.10
2022-12-15T06:49:00.033Z,2.10
2022-12-15T06:51:28.814Z,2.10
2022-12-15T06:53:57.443Z,2.10
2022-12-15T06:56:33.618Z,2.10
2022-12-15T06:59:04.359Z,2.10
2022-12-15T07:01:34.642Z,2.20
2022-12-15T07:04:05.412Z,2.20
2022-12-15T07:06:37.364Z,2.20
2022-12-15T07:09:08.301Z,2.20
2022-12-15T07:11:36.868Z,2.20
2022-12-15T07:14:05.841Z,2.30
2022-12-15T07:16:35.672Z,2.30
2022-12-15T07:19:04.377Z,2.30
2022-12-15T07:21:33.483Z,2.30
2022-12-15T07:24:02.576Z,2.30
2022-12-15T07:26:31.454Z,2.30
2022-12-15T07:28:59.694Z,2.30
2022-12-15T07:31:28.251Z,2.30
2022-12-15T07:33:58.554Z,2.30
2022-12-15T07:36:27.519Z,2.30
2022-12-15T07:39:01.314Z,2.30
2022-12-15T07:41:30.302Z,2.30
2022-12-15T07:43:58.942Z,2.40
2022-12-15T07:46:29.122Z,2.30
2022-12-15T07:48:58.978Z,2.40
2022-12-15T07:51:27.655Z,2.40
2022-12-15T07:53:55.971Z,2.40
2022-12-15T07:56:24.698Z,2.40
2022-12-15T07:58:53.054Z,2.40
2022-12-15T08:01:21.498Z,2.40
2022-12-15T08:03:50.274Z,2.40
2022-12-15T08:06:20.045Z,2.40
2022-12-15T08:08:50.043Z,2.40
2022-12-15T08:11:21.100Z,2.50
2022-12-15T08:14:02.653Z,2.50
2022-12-15T08:16:31.809Z,2.50
2022-12-15T08:19:00.249Z,2.50
2022-12-15T08:21:31.410Z,2.50
2022-12-15T08:24:00.833Z,2.50
2022-12-15T08:26:30.987Z,2.60
2022-12-15T08:29:40.407Z,2.60
2022-12-15T08:31:53.638Z,2.60
2022-12-15T08:34:22.378Z,2.60
2022-12-15T08:36:52.057Z,2.70
2022-12-15T08:39:20.569Z,2.70
2022-12-15T08:41:48.990Z,2.70
2022-12-15T08:44:17.414Z,2.80
2022-12-15T08:46:45.845Z,2.80
2022-12-15T08:49:19.542Z,2.80
2022-12-15T08:51:51.929Z,2.80
2022-12-15T08:54:21.512Z,2.90
2022-12-15T08:56:50.167Z,2.90
2022-12-15T08:59:19.012Z,2.90
2022-12-15T09:01:47.419Z,2.90
2022-12-15T09:04:16.269Z,2.90
2022-12-15T09:06:50.417Z,3.00
2022-12-15T09:09:21.323Z,3.00
2022-12-15T09:11:50.001Z,3.00
2022-12-15T09:14:25.545Z,3.10
2022-12-15T09:16:55.690Z,3.10
2022-12-15T09:19:24.000Z,3.20
2022-12-15T09:21:52.812Z,3.20
2022-12-15T09:24:34.064Z,3.20
2022-12-15T09:27:04.265Z,3.30
2022-12-15T09:29:32.915Z,3.30
2022-12-15T09:32:01.187Z,3.40
2022-12-15T09:34:29.457Z,3.40
2022-12-15T09:36:57.923Z,3.40
2022-12-15T09:39:27.734Z,3.40
2022-12-15T09:41:59.987Z,3.50
2022-12-15T09:44:30.072Z,3.50
2022-12-15T09:47:15.785Z,3.40
2022-12-15T09:49:56.249Z,3.40
2022-12-15T09:52:28.905Z,3.40
2022-12-15T09:55:01.473Z,3.40
2022-12-15T09:57:41.615Z,3.50
2022-12-15T10:00:21.124Z,3.50
2022-12-15T10:03:14.130Z,3.50
2022-12-15T10:06:15.558Z,3.50
2022-12-15T10:08:47.489Z,3.50
2022-12-15T10:11:50.259Z,3.60
2022-12-15T10:14:28.178Z,3.50
2022-12-15T10:17:03.967Z,3.60
2022-12-15T10:19:40.534Z,3.60
2022-12-15T10:22:14.674Z,3.60
2022-12-15T10:27:53.923Z,3.60
2022-12-15T10:30:23.276Z,3.60
2022-12-15T10:32:58.083Z,3.60
2022-12-15T10:35:30.415Z,3.60
2022-12-15T10:38:00.539Z,3.70
2022-12-15T10:40:50.538Z,3.70
2022-12-15T10:43:40.546Z,3.70
2022-12-15T10:46:14.925Z,3.70
2022-12-15T10:48:44.597Z,3.70
2022-12-15T10:51:28.983Z,3.70
2022-12-15T10:54:07.898Z,3.70
2022-12-15T10:56:46.901Z,3.70
2022-12-15T10:59:30.809Z,3.70
2022-12-15T11:02:27.191Z,3.80
2022-12-15T11:05:00.440Z,3.80
2022-12-15T11:07:34.548Z,3.80
2022-12-15T11:10:09.314Z,3.90
2022-12-15T11:12:58.407Z,3.90
2022-12-15T11:15:44.199Z,3.90
2022-12-15T11:18:30.590Z,4.00
2022-12-15T11:21:04.482Z,4.00
2022-12-15T11:23:55.951Z,4.10
2022-12-15T11:26:36.735Z,4.10
2022-12-15T11:29:14.766Z,4.10
2022-12-15T11:31:48.792Z,4.10
2022-12-15T11:34:19.627Z,4.10
2022-12-15T11:37:34.279Z,4.10
2022-12-15T11:40:20.785Z,4.10
2022-12-15T11:43:06.616Z,4.20
2022-12-15T11:45:42.740Z,4.30
2022-12-15T11:48:17.308Z,4.20
2022-12-15T11:50:54.606Z,4.30
2022-12-15T11:53:47.851Z,4.30
2022-12-15T11:56:29.094Z,4.40
2022-12-15T11:59:33.541Z,4.40
2022-12-15T12:02:19.271Z,4.50
2022-12-15T12:05:06.621Z,4.50
2022-12-15T12:07:44.901Z,4.60
2022-12-15T12:10:27.638Z,4.60
2022-12-15T12:13:03.770Z,4.70
2022-12-15T12:15:40.922Z,4.70
2022-12-15T12:18:18.921Z,4.80
2022-12-15T12:20:51.115Z,4.70
2022-12-15T12:23:24.586Z,4.70
2022-12-15T12:26:03.218Z,4.70
2022-12-15T12:28:41.969Z,4.70
2022-12-15T12:31:20.655Z,4.60
2022-12-15T12:33:53.634Z,4.60
2022-12-15T12:36:24.047Z,4.60
2022-12-15T12:38:56.116Z,4.60
2022-12-15T12:41:33.850Z,4.60
2022-12-15T12:44:08.620Z,4.60
2022-12-15T12:46:43.037Z,4.60
2022-12-15T12:49:26.215Z,4.60
2022-12-15T12:51:59.476Z,4.60
2022-12-15T12:54:42.696Z,4.60
2022-12-15T12:57:31.741Z,4.60
2022-12-15T13:00:03.110Z,4.60
2022-12-15T13:02:47.616Z,4.60
2022-12-15T13:05:31.295Z,4.70
2022-12-15T13:08:20.557Z,4.70
2022-12-15T13:10:50.870Z,4.70
2022-12-15T13:13:51.055Z,4.70
2022-12-15T13:16:26.078Z,4.70
2022-12-15T13:19:01.979Z,4.80
2022-12-15T13:22:03.639Z,4.80
2022-12-15T13:24:35.969Z,4.80
2022-12-15T13:27:15.217Z,4.80
2022-12-15T13:30:00.993Z,4.80
2022-12-15T13:32:36.738Z,4.80
2022-12-15T13:35:26.241Z,4.80
2022-12-15T13:37:56.880Z,4.80
2022-12-15T13:40:34.900Z,4.80
2022-12-15T13:43:31.905Z,4.80
2022-12-15T13:46:03.210Z,4.80
2022-12-15T13:48:36.483Z,4.80
2022-12-15T13:51:16.478Z,4.80
2022-12-15T13:53:49.711Z,4.80
2022-12-15T13:56:27.682Z,4.80
2022-12-15T13:59:04.049Z,4.90
2022-12-15T14:01:33.960Z,4.90
2022-12-15T14:04:12.582Z,4.90
2022-12-15T14:06:47.050Z,4.90
2022-12-15T14:09:23.753Z,4.90
2022-12-15T14:11:54.414Z,4.90
2022-12-15T14:14:28.809Z,4.90
2022-12-15T14:17:00.685Z,5.00
2022-12-15T14:19:38.981Z,4.90
2022-12-15T14:22:28.008Z,4.90
2022-12-15T14:25:02.558Z,5.00
2022-12-15T14:27:34.422Z,5.00
2022-12-15T14:30:14.182Z,5.00
2022-12-15T14:32:44.925Z,5.00
2022-12-15T14:35:15.890Z,5.00
2022-12-15T14:37:44.777Z,5.00
2022-12-15T14:40:16.256Z,5.00
2022-12-15T14:42:47.271Z,5.00
2022-12-15T14:45:21.279Z,5.00
2022-12-15T14:48:13.715Z,5.00
2022-12-15T14:50:47.739Z,5.00
2022-12-15T14:53:19.427Z,5.00
2022-12-15T14:55:47.868Z,4.90
2022-12-15T14:58:33.380Z,4.90
2022-12-15T15:01:02.977Z,4.90
2022-12-15T15:03:38.263Z,4.90
2022-12-15T15:06:16.983Z,4.80
2022-12-15T15:08:48.765Z,4.80
2022-12-15T15:11:29.352Z,4.80
2022-12-15T15:14:01.128Z,4.80
2022-12-15T15:16:29.842Z,4.80
2022-12-15T15:19:01.929Z,4.70
2022-12-15T15:21:31.809Z,4.70
2022-12-15T15:24:01.892Z,4.70
2022-12-15T15:26:30.982Z,4.70
2022-12-15T15:29:00.910Z,4.70
2022-12-15T15:31:40.404Z,4.60
2022-12-15T15:34:09.572Z,4.60
2022-12-15T15:36:39.582Z,4.50
2022-12-15T15:39:14.044Z,4.50
2022-12-15T15:41:42.831Z,4.40
2022-12-15T15:44:15.607Z,4.40
2022-12-15T15:46:48.045Z,4.40
2022-12-15T15:49:19.859Z,4.40
2022-12-15T15:51:48.269Z,4.30
2022-12-15T15:54:18.874Z,4.30
2022-12-15T15:56:47.230Z,4.20
2022-12-15T15:59:18.257Z,4.20
2022-12-15T16:01:48.677Z,4.20
2022-12-15T16:04:17.115Z,4.10
2022-12-15T16:06:47.636Z,4.10
2022-12-15T16:09:17.672Z,4.10
2022-12-15T16:11:47.534Z,4.10
2022-12-15T16:14:18.731Z,4.00
2022-12-15T16:16:47.224Z,4.00
2022-12-15T16:19:15.539Z,4.00
2022-12-15T16:21:44.593Z,3.90
2022-12-15T16:24:17.138Z,3.90
2022-12-15T16:26:49.935Z,3.90
2022-12-15T16:29:21.809Z,3.90
2022-12-15T16:31:50.432Z,3.90
2022-12-15T16:34:19.290Z,3.90
2022-12-15T16:36:47.914Z,3.90
2022-12-15T16:39:28.055Z,3.90
2022-12-15T16:41:57.393Z,3.90
2022-12-15T16:44:29.205Z,3.90
2022-12-15T16:46:58.804Z,3.90
2022-12-15T16:49:27.879Z,3.90
2022-12-15T16:51:56.274Z,3.80
2022-12-15T16:54:27.294Z,3.80
2022-12-15T16:56:57.396Z,3.90
2022-12-15T16:59:35.846Z,3.80
2022-12-15T17:02:23.179Z,3.80
2022-12-15T17:04:51.778Z,3.80
2022-12-15T17:07:20.993Z,3.80
2022-12-15T17:09:50.785Z,3.80
2022-12-15T17:12:19.822Z,3.80
2022-12-15T17:14:49.445Z,3.80
2022-12-15T17:17:20.270Z,3.80
2022-12-15T17:20:20.011Z,3.90
2022-12-15T17:22:38.134Z,3.90
2022-12-15T17:25:07.248Z,3.90
2022-12-15T17:27:35.573Z,3.90
2022-12-15T17:30:06.318Z,3.90
2022-12-15T17:32:34.636Z,3.90
2022-12-15T17:35:02.914Z,3.90
2022-12-15T17:37:35.279Z,3.90
2022-12-15T17:40:04.668Z,3.90
2022-12-15T17:42:32.961Z,3.90
2022-12-15T17:45:01.313Z,3.90
2022-12-15T17:47:31.091Z,3.90
2022-12-15T17:49:59.394Z,3.90
2022-12-15T17:52:29.844Z,3.90
2022-12-15T17:54:58.770Z,3.90
2022-12-15T17:57:27.059Z,3.80
2022-12-15T17:59:55.625Z,3.80
2022-12-15T18:02:24.055Z,3.80
2022-12-15T18:04:55.225Z,3.70
2022-12-15T18:07:24.791Z,3.70
2022-12-15T18:09:53.961Z,3.70
2022-12-15T18:12:25.280Z,3.70
2022-12-15T18:14:54.217Z,3.70
2022-12-15T18:17:22.543Z,3.70
2022-12-15T18:19:51.065Z,3.70
2022-12-15T18:22:23.264Z,3.60
2022-12-15T18:24:53.700Z,3.60
2022-12-15T18:27:25.041Z,3.60
2022-12-15T18:29:53.855Z,3.60
2022-12-15T18:32:25.853Z,3.60
2022-12-15T18:34:54.724Z,3.50
2022-12-15T18:37:25.656Z,3.50
2022-12-15T18:39:56.249Z,3.50
2022-12-15T18:42:29.281Z,3.50
2022-12-15T18:45:00.368Z,3.40
2022-12-15T18:47:28.719Z,3.40
2022-12-15T18:49:57.121Z,3.40
2022-12-15T18:52:33.029Z,3.40
2022-12-15T18:55:03.003Z,3.40
2022-12-15T18:57:32.913Z,3.30
2022-12-15T19:00:05.569Z,3.30
2022-12-15T19:02:34.093Z,3.30
2022-12-15T19:05:02.495Z,3.30
2022-12-15T19:07:32.506Z,3.20
2022-12-15T19:10:01.127Z,3.20
2022-12-15T19:12:29.473Z,3.20
2022-12-15T19:14:57.775Z,3.10
2022-12-15T19:17:43.621Z,3.10
2022-12-15T19:20:35.262Z,3.10
2022-12-15T19:23:05.396Z,3.10
2022-12-15T19:25:34.128Z,3.00
2022-12-15T19:28:02.752Z,3.00
2022-12-15T19:30:40.206Z,3.00
2022-12-15T19:33:11.821Z,3.00
2022-12-15T19:35:42.036Z,2.90
2022-12-15T19:38:22.158Z,2.90
2022-12-15T19:40:53.628Z,2.90
2022-12-15T19:43:22.654Z,2.90
2022-12-15T19:45:51.948Z,2.80
2022-12-15T19:48:23.725Z,2.80
2022-12-15T19:50:54.779Z,2.80
2022-12-15T19:53:28.087Z,2.70
2022-12-15T19:55:59.277Z,2.70
2022-12-15T19:58:30.262Z,2.70
2022-12-15T20:01:00.884Z,2.70
2022-12-15T20:03:30.905Z,2.60
2022-12-15T20:06:01.550Z,2.60
2022-12-15T20:08:35.185Z,2.60
2022-12-15T20:11:03.717Z,2.60
2022-12-15T20:13:32.500Z,2.50
2022-12-15T20:16:01.084Z,2.50
2022-12-15T20:18:29.576Z,2.40
2022-12-15T20:20:59.238Z,2.40
2022-12-15T20:23:29.498Z,2.40
2022-12-15T20:25:59.533Z,2.30
2022-12-15T20:28:29.338Z,2.30
2022-12-15T20:30:59.172Z,2.30
2022-12-15T20:33:28.492Z,2.20
2022-12-15T20:35:56.990Z,2.20
2022-12-15T20:38:29.673Z,2.20
2022-12-15T20:41:00.107Z,2.20
2022-12-15T20:43:31.696Z,2.10
2022-12-15T20:46:06.148Z,2.20
2022-12-15T20:48:36.521Z,2.10
2022-12-15T20:51:09.266Z,2.10
2022-12-15T20:53:38.939Z,2.10
2022-12-15T20:56:09.173Z,2.10
2022-12-15T20:58:40.359Z,2.10
2022-12-15T21:01:31.851Z,2.10
2022-12-15T21:04:02.637Z,2.10
2022-12-15T21:06:31.714Z,2.10
2022-12-15T21:08:59.994Z,2.10
2022-12-15T21:11:33.685Z,2.10
2022-12-15T21:14:04.473Z,2.10
2022-12-15T21:16:33.930Z,2.10
2022-12-15T21:19:19.916Z,2.10
2022-12-15T21:21:55.092Z,2.10
2022-12-15T21:24:26.232Z,2.10
2022-12-15T21:26:56.275Z,2.10
2022-12-15T21:29:26.573Z,2.00
2022-12-15T21:31:54.966Z,2.00
2022-12-15T21:34:23.640Z,2.00
2022-12-15T21:36:55.175Z,2.00
2022-12-15T21:39:29.367Z,1.90
2022-12-15T21:42:00.978Z,1.90
2022-12-15T21:44:29.545Z,1.90
2022-12-15T21:46:57.785Z,1.90
2022-12-15T21:49:25.581Z,1.90
2022-12-15T21:51:58.652Z,1.90
2022-12-15T21:54:31.559Z,1.90
2022-12-15T21:57:02.693Z,1.90
2022-12-15T21:59:32.707Z,1.90
2022-12-15T22:02:01.742Z,1.80
2022-12-15T22:04:33.385Z,1.90
2022-12-15T22:07:02.146Z,1.90
2022-12-15T22:09:30.525Z,1.80
2022-12-15T22:11:59.199Z,1.80
2022-12-15T22:14:30.960Z,1.80
2022-12-15T22:17:00.262Z,1.80
2022-12-15T22:19:29.089Z,1.80
2022-12-15T22:21:57.318Z,1.80
2022-12-15T22:24:25.678Z,1.80
2022-12-15T22:26:53.965Z,1.80
2022-12-15T22:29:24.401Z,1.80
2022-12-15T22:31:55.026Z,1.80
2022-12-15T22:34:24.975Z,1.80
2022-12-15T22:36:53.420Z,1.80
2022-12-15T22:39:23.545Z,1.80
2022-12-15T22:41:53.592Z,1.80
2022-12-15T22:44:24.831Z,1.80
2022-12-15T22:46:57.290Z,1.80
2022-12-15T22:49:30.027Z,1.80
2022-12-15T22:51:58.302Z,1.80
2022-12-15T22:54:28.777Z,1.80
2022-12-15T22:57:01.609Z,1.80
2022-12-15T22:59:34.366Z,1.80
2022-12-15T23:02:04.727Z,1.80
2022-12-15T23:04:33.398Z,1.80
2022-12-15T23:07:03.987Z,1.80
2022-12-15T23:09:32.425Z,1.80
2022-12-15T23:11:59.689Z,1.80
2022-12-15T23:14:42.017Z,1.80
2022-12-15T23:17:12.666Z,1.80
2022-12-15T23:19:44.825Z,1.80
2022-12-15T23:22:13.289Z,1.80
2022-12-15T23:24:41.715Z,1.80
2022-12-15T23:27:11.465Z,1.80
2022-12-15T23:29:39.884Z,1.80
2022-12-15T23:32:08.244Z,1.80
2022-12-15T23:34:38.119Z,1.80
2022-12-15T23:37:06.409Z,1.70
2022-12-15T23:39:34.653Z,1.70
2022-12-15T23:42:02.925Z,1.70
2022-12-15T23:44:31.261Z,1.70
2022-12-15T23:46:59.637Z,1.70
2022-12-15T23:49:28.037Z,1.70
2022-12-15T23:51:58.135Z,1.70
2022-12-15T23:54:27.138Z,1.60
2022-12-15T23:56:55.520Z,1.60
2022-12-15T23:59:23.779Z,1.60
